Time;durP1;ratioP1;P1;durP2;ratioP2;P2;SDS_P1;SDS_P2;PMS_P1;PMS_P2;Temp;Humidity;BMP_temperature;BMP_pressure;BME280_temperature;BME280_humidity;BME280_pressure;Samples;Min_cycle;Max_cycle;Signal;HPM_P1;HPM_P2
2022/01/04 00:01:48;;;;;;;20.67;6.60;;;8.20;99.90;;;;;;5022637;28;20077;-74
2022/01/04 00:04:15;;;;;;;26.65;6.45;;;8.20;99.90;;;;;;5028860;28;20064;-74
2022/01/04 00:06:40;;;;;;;21.00;6.03;;;8.30;99.90;;;;;;5023572;28;20123;-73
2022/01/04 00:09:07;;;;;;;20.38;6.03;;;8.30;99.90;;;;;;5027461;28;20042;-74
2022/01/04 00:14:19;;;;;;;20.67;4.63;;;8.30;99.90;;;;;;5028874;28;20057;-73
2022/01/04 00:16:45;;;;;;;19.10;6.50;;;8.30;99.90;;;;;;5023197;28;20131;-73
2022/01/04 00:19:11;;;;;;;22.08;5.95;;;8.30;99.90;;;;;;5018352;28;20041;-74
2022/01/04 00:21:38;;;;;;;19.90;6.20;;;8.30;99.90;;;;;;5020247;28;20100;-73
2022/01/04 00:24:04;;;;;;;20.08;6.00;;;8.30;99.90;;;;;;5021438;28;20096;-74
2022/01/04 00:26:30;;;;;;;27.98;6.43;;;8.30;99.90;;;;;;5028063;28;20049;-74
2022/01/04 00:28:56;;;;;;;24.00;5.80;;;8.30;99.90;;;;;;5024960;28;20048;-74
2022/01/04 00:31:23;;;;;;;18.52;5.25;;;8.30;99.90;;;;;;5060446;28;20136;-74
2022/01/04 00:33:49;;;;;;;22.15;4.95;;;8.30;99.90;;;;;;5022879;28;20046;-74
2022/01/04 00:36:15;;;;;;;24.95;6.07;;;8.30;99.90;;;;;;5023515;28;20055;-74
2022/01/04 00:38:41;;;;;;;17.55;4.78;;;8.30;99.90;;;;;;5021321;28;20049;-74
2022/01/04 00:41:09;;;;;;;24.55;5.60;;;7.50;99.90;;;;;;5043706;28;20057;-74
2022/01/04 00:43:35;;;;;;;23.95;5.07;;;8.30;99.90;;;;;;5024137;28;20037;-74
2022/01/04 00:46:01;;;;;;;17.48;4.78;;;8.30;99.90;;;;;;5025642;28;20053;-74
2022/01/04 00:50:53;;;;;;;16.55;4.97;;;8.20;99.90;;;;;;5026794;28;20057;-74
2022/01/04 00:53:19;;;;;;;17.98;4.50;;;8.30;99.90;;;;;;5028920;28;20404;-74
2022/01/04 00:55:45;;;;;;;19.15;5.25;;;8.20;99.90;;;;;;5026952;28;20056;-74
2022/01/04 00:58:11;;;;;;;17.77;5.20;;;8.30;99.90;;;;;;5027897;28;20481;-74
2022/01/04 01:00:39;;;;;;;22.42;6.07;;;8.80;99.90;;;;;;5027185;28;20053;-74
2022/01/04 01:03:06;;;;;;;23.60;5.55;;;8.20;99.90;;;;;;5025044;28;20049;-74
2022/01/04 01:05:33;;;;;;;28.70;5.55;;;8.20;99.90;;;;;;5026227;28;20386;-74
2022/01/04 01:07:59;;;;;;;22.88;5.93;;;8.20;99.90;;;;;;5027556;28;20049;-74
2022/01/04 01:10:44;;;;;;;20.42;5.80;;;8.20;99.90;;;;;;5021260;28;20037;-74
2022/01/04 01:13:12;;;;;;;15.82;5.45;;;8.20;99.90;;;;;;5022539;28;20481;-74
2022/01/04 01:15:40;;;;;;;19.60;5.10;;;8.20;99.90;;;;;;5021642;28;20038;-74
2022/01/04 01:18:06;;;;;;;17.45;5.55;;;8.20;99.90;;;;;;5027224;28;20037;-74
2022/01/04 01:20:31;;;;;;;20.63;6.90;;;8.20;99.90;;;;;;5022316;28;20038;-73
2022/01/04 01:22:58;;;;;;;27.83;6.72;;;8.20;99.90;;;;;;5024010;28;20041;-74
2022/01/04 01:25:24;;;;;;;17.17;6.63;;;8.20;99.90;;;;;;5026223;28;20037;-74
2022/01/04 01:27:50;;;;;;;25.77;7.38;;;8.20;99.90;;;;;;5024861;28;20072;-74
2022/01/04 01:30:15;;;;;;;25.02;5.95;;;8.20;99.90;;;;;;5026380;28;20046;-74
2022/01/04 01:32:41;;;;;;;21.27;6.80;;;8.20;99.90;;;;;;5021003;28;20447;-74
2022/01/04 01:35:07;;;;;;;15.15;5.97;;;8.20;99.90;;;;;;5023529;28;20045;-74
2022/01/04 01:37:34;;;;;;;25.35;6.35;;;8.20;99.90;;;;;;5023236;28;20049;-75
2022/01/04 01:40:00;;;;;;;30.27;6.82;;;8.20;99.90;;;;;;5026030;28;20049;-74
2022/01/04 01:42:25;;;;;;;25.42;6.40;;;8.20;99.90;;;;;;5025262;28;20370;-74
2022/01/04 01:44:51;;;;;;;23.85;6.90;;;8.20;99.90;;;;;;5025008;28;20378;-74
2022/01/04 01:47:17;;;;;;;24.95;6.60;;;8.20;99.90;;;;;;5023959;28;20095;-74
2022/01/04 01:49:44;;;;;;;18.77;5.97;;;8.20;99.90;;;;;;5022601;28;20347;-74
2022/01/04 01:52:10;;;;;;;23.27;6.18;;;8.20;99.90;;;;;;5038296;28;20061;-74
2022/01/04 01:54:35;;;;;;;18.88;6.65;;;8.20;99.90;;;;;;5025236;28;20054;-74
2022/01/04 01:57:01;;;;;;;20.08;6.78;;;8.20;99.90;;;;;;5023231;28;20080;-74
2022/01/04 01:59:27;;;;;;;29.38;7.88;;;8.20;99.90;;;;;;5022365;28;20048;-74
2022/01/04 02:01:53;;;;;;;27.55;7.82;;;8.20;99.90;;;;;;5019725;28;20053;-74
2022/01/04 02:04:19;;;;;;;27.90;6.78;;;8.20;99.90;;;;;;5019354;28;20054;-74
2022/01/04 02:06:45;;;;;;;23.58;6.75;;;8.20;99.90;;;;;;5025408;28;20443;-74
2022/01/04 02:09:11;;;;;;;28.92;6.95;;;8.20;99.90;;;;;;5026464;28;20049;-74
2022/01/04 02:11:37;;;;;;;19.25;7.07;;;8.20;99.90;;;;;;5037456;28;20393;-75
2022/01/04 02:14:02;;;;;;;20.52;7.00;;;8.20;99.90;;;;;;5018495;28;20046;-74
2022/01/04 02:16:30;;;;;;;25.90;6.68;;;8.20;99.90;;;;;;5023569;28;20045;-74
2022/01/04 02:19:04;;;;;;;26.15;6.97;;;8.10;99.90;;;;;;5035836;28;20046;-75
2022/01/04 02:21:31;;;;;;;24.20;5.93;;;8.20;99.90;;;;;;5026242;28;20037;-74
2022/01/04 02:23:57;;;;;;;20.38;6.63;;;8.10;99.90;;;;;;5022786;28;20049;-74
2022/01/04 02:26:23;;;;;;;29.13;7.35;;;8.70;99.90;;;;;;5021220;28;20072;-74
2022/01/04 02:28:50;;;;;;;24.50;6.97;;;8.10;99.90;;;;;;5024688;28;21504;-75
2022/01/04 02:31:16;;;;;;;25.33;7.45;;;8.20;99.90;;;;;;5025498;28;20045;-75
2022/01/04 02:33:42;;;;;;;22.92;7.25;;;8.20;99.90;;;;;;5023954;28;20037;-75
2022/01/04 02:36:08;;;;;;;22.48;7.13;;;8.10;99.90;;;;;;5022306;28;20536;-74
2022/01/04 02:38:33;;;;;;;23.50;7.63;;;8.20;99.90;;;;;;5019395;28;20042;-74
2022/01/04 02:41:00;;;;;;;22.77;6.57;;;8.30;99.90;;;;;;5023251;28;20056;-74
2022/01/04 02:43:26;;;;;;;26.42;6.65;;;8.10;99.90;;;;;;5022200;28;20057;-74
2022/01/04 02:45:51;;;;;;;20.98;7.40;;;8.20;99.90;;;;;;5024181;28;20064;-74
2022/01/04 02:48:17;;;;;;;19.63;7.22;;;8.10;99.90;;;;;;5024207;28;20056;-75
2022/01/04 02:50:43;;;;;;;20.70;7.20;;;8.20;99.90;;;;;;5020475;28;20075;-75
2022/01/04 02:53:09;;;;;;;24.85;8.65;;;8.10;99.90;;;;;;5016347;28;20497;-75
2022/01/04 02:55:35;;;;;;;25.90;8.43;;;8.10;99.90;;;;;;5025492;28;20057;-75
2022/01/04 02:58:01;;;;;;;25.45;8.18;;;8.20;99.90;;;;;;5024185;28;20056;-75
2022/01/04 03:00:28;;;;;;;22.85;7.95;;;8.20;99.90;;;;;;5024730;28;20058;-75
2022/01/04 03:02:54;;;;;;;21.50;8.75;;;8.10;99.90;;;;;;5032199;28;20041;-75
2022/01/04 03:05:23;;;;;;;20.35;9.25;;;8.20;99.90;;;;;;5017460;28;20547;-74
2022/01/04 03:07:48;;;;;;;25.17;8.27;;;8.20;99.90;;;;;;5015418;28;20037;-75
2022/01/04 03:10:14;;;;;;;28.63;8.25;;;8.20;99.90;;;;;;5022879;28;20401;-75
2022/01/04 03:12:43;;;;;;;30.35;9.38;;;8.20;99.90;;;;;;5019565;28;20600;-75
2022/01/04 03:15:09;;;;;;;30.55;9.18;;;8.20;99.90;;;;;;5020111;28;20478;-75
2022/01/04 03:17:35;;;;;;;28.45;8.93;;;8.10;99.90;;;;;;5024847;28;20476;-75
2022/01/04 03:20:01;;;;;;;28.17;8.55;;;8.10;99.90;;;;;;5021928;28;20057;-75
2022/01/04 03:22:26;;;;;;;30.48;8.30;;;8.10;99.90;;;;;;5022372;28;20450;-75
2022/01/04 03:24:52;;;;;;;22.05;7.85;;;8.10;99.90;;;;;;5023475;28;20081;-75
2022/01/04 03:27:18;;;;;;;23.15;8.35;;;8.10;99.90;;;;;;5022760;28;20071;-75
2022/01/04 03:29:44;;;;;;;25.10;9.07;;;8.10;99.90;;;;;;5022849;28;20392;-75
2022/01/04 03:32:10;;;;;;;29.48;8.55;;;8.10;99.90;;;;;;5018812;28;20065;-75
2022/01/04 03:34:35;;;;;;;21.60;8.55;;;8.00;99.90;;;;;;5022481;28;20068;-75
2022/01/04 03:37:01;;;;;;;26.58;8.60;;;8.10;99.90;;;;;;5025546;28;20466;-75
2022/01/04 03:39:26;;;;;;;28.05;9.02;;;8.10;99.90;;;;;;5026873;28;20038;-75
2022/01/04 03:41:52;;;;;;;21.83;8.73;;;8.40;99.90;;;;;;5027908;28;20065;-75
2022/01/04 03:44:20;;;;;;;29.92;9.90;;;8.10;99.90;;;;;;5024720;28;20073;-75
2022/01/04 03:46:51;;;;;;;28.80;9.07;;;8.00;99.90;;;;;;5029106;28;20050;-75
2022/01/04 03:49:17;;;;;;;28.48;10.00;;;8.00;99.90;;;;;;5028565;28;20072;-75
2022/01/04 03:51:43;;;;;;;22.65;8.60;;;8.00;99.90;;;;;;5039040;28;20054;-75
2022/01/04 03:54:09;;;;;;;29.58;9.43;;;8.00;99.90;;;;;;5025640;28;20049;-75
2022/01/04 03:56:35;;;;;;;25.30;9.20;;;8.10;99.90;;;;;;5027445;28;20052;-75
2022/01/04 03:59:01;;;;;;;23.85;9.20;;;8.10;99.90;;;;;;5030070;28;20076;-75
2022/01/04 04:01:27;;;;;;;26.35;9.48;;;8.10;99.90;;;;;;5026556;28;20111;-75
2022/01/04 04:03:53;;;;;;;29.75;10.77;;;8.10;99.90;;;;;;5028105;28;20049;-75
2022/01/04 04:06:19;;;;;;;21.98;9.40;;;7.70;99.90;;;;;;5027613;28;20092;-75
2022/01/04 04:08:44;;;;;;;23.80;10.00;;;8.20;99.90;;;;;;5028356;28;20501;-75
2022/01/04 04:11:11;;;;;;;31.02;11.02;;;8.20;99.90;;;;;;5025451;28;20096;-75
2022/01/04 04:13:37;;;;;;;29.95;8.80;;;8.20;99.90;;;;;;5018343;28;20038;-75
2022/01/04 04:16:03;;;;;;;29.67;9.70;;;8.20;99.90;;;;;;5025990;28;20034;-76
2022/01/04 04:18:28;;;;;;;28.52;9.48;;;8.20;99.90;;;;;;5028163;28;20038;-75
2022/01/04 04:20:54;;;;;;;29.55;9.45;;;8.20;99.90;;;;;;5026413;28;20405;-76
2022/01/04 04:23:20;;;;;;;28.80;9.93;;;8.20;99.90;;;;;;5025309;28;20041;-75
2022/01/04 04:25:46;;;;;;;35.72;11.25;;;8.20;99.90;;;;;;5023017;28;20057;-76
2022/01/04 04:28:11;;;;;;;28.15;10.05;;;8.20;99.90;;;;;;5019172;28;20049;-75
2022/01/04 04:30:37;;;;;;;29.42;10.95;;;8.20;99.90;;;;;;5023944;28;20041;-75
2022/01/04 04:33:03;;;;;;;33.25;11.15;;;8.20;99.90;;;;;;5021275;28;20045;-76
2022/01/04 04:35:30;;;;;;;29.23;10.70;;;8.10;99.90;;;;;;5029926;28;20046;-76
2022/01/04 04:37:57;;;;;;;31.27;10.73;;;8.20;99.90;;;;;;5027887;28;20041;-76
2022/01/04 04:40:23;;;;;;;33.40;11.52;;;8.10;99.90;;;;;;5023477;28;20045;-75
2022/01/04 04:42:48;;;;;;;29.15;10.70;;;8.20;99.90;;;;;;5023638;28;20401;-76
2022/01/04 04:45:14;;;;;;;37.80;12.35;;;8.20;99.90;;;;;;5026352;28;20064;-76
2022/01/04 04:47:40;;;;;;;34.00;11.80;;;8.20;99.90;;;;;;5029895;28;20033;-76
2022/01/04 04:50:06;;;;;;;31.13;11.75;;;8.20;99.90;;;;;;5022270;28;20595;-76
2022/01/04 04:52:32;;;;;;;32.70;11.70;;;8.20;99.90;;;;;;5022774;28;20134;-76
2022/01/04 04:54:58;;;;;;;33.83;12.20;;;8.20;99.90;;;;;;5020770;28;20493;-76
2022/01/04 04:57:23;;;;;;;37.78;11.23;;;8.20;99.90;;;;;;5025699;28;20046;-76
2022/01/04 04:59:49;;;;;;;35.05;12.23;;;8.20;99.90;;;;;;5028661;28;20120;-76
2022/01/04 05:02:15;;;;;;;28.25;11.32;;;8.20;99.90;;;;;;5028733;28;20034;-76
2022/01/04 05:04:40;;;;;;;31.23;12.05;;;8.20;99.90;;;;;;5026032;28;20405;-76
2022/01/04 05:07:06;;;;;;;32.20;11.18;;;8.20;99.90;;;;;;5025127;28;20079;-76
2022/01/04 05:09:31;;;;;;;30.17;11.20;;;8.20;99.90;;;;;;5023250;28;20052;-75
2022/01/04 05:11:57;;;;;;;36.30;11.77;;;8.20;99.90;;;;;;5018801;28;20041;-76
2022/01/04 05:14:23;;;;;;;27.65;11.55;;;8.20;99.90;;;;;;5028006;28;20069;-76
2022/01/04 05:16:49;;;;;;;34.42;11.85;;;8.20;99.90;;;;;;5025428;28;20263;-76
2022/01/04 05:19:16;;;;;;;33.95;11.20;;;8.20;99.90;;;;;;5026018;28;20050;-76
2022/01/04 05:21:41;;;;;;;28.38;12.02;;;8.20;99.90;;;;;;5022145;28;20562;-76
2022/01/04 05:24:07;;;;;;;34.35;12.77;;;8.20;99.90;;;;;;5021297;28;20470;-76
2022/01/04 05:26:33;;;;;;;34.92;13.15;;;8.20;99.90;;;;;;5023955;28;20033;-76
2022/01/04 05:29:02;;;;;;;28.15;11.60;;;8.20;99.90;;;;;;5020454;28;20071;-76
2022/01/04 05:31:28;;;;;;;29.55;12.25;;;8.20;99.90;;;;;;5026537;28;20045;-76
2022/01/04 05:33:54;;;;;;;27.27;11.52;;;8.40;99.90;;;;;;5020678;28;20041;-76
2022/01/04 05:36:20;;;;;;;25.73;12.00;;;8.20;99.90;;;;;;5023296;28;20456;-76
2022/01/04 05:38:47;;;;;;;28.48;11.45;;;8.20;99.90;;;;;;5026435;28;20111;-76
2022/01/04 05:41:13;;;;;;;29.70;11.52;;;8.20;99.90;;;;;;5059977;28;20107;-76
2022/01/04 05:43:39;;;;;;;29.70;12.10;;;8.20;99.90;;;;;;5024588;28;20053;-76
2022/01/04 05:46:05;;;;;;;22.90;11.95;;;8.10;99.90;;;;;;5024528;28;20046;-76
2022/01/04 05:48:30;;;;;;;30.33;12.02;;;8.20;99.90;;;;;;5029589;28;20064;-77
2022/01/04 05:50:56;;;;;;;33.20;11.48;;;8.20;99.90;;;;;;5023854;28;20053;-76
2022/01/04 05:53:22;;;;;;;34.72;12.43;;;8.20;99.90;;;;;;5021973;28;20048;-77
2022/01/04 05:55:47;;;;;;;26.38;12.45;;;8.20;99.90;;;;;;5025419;28;20041;-77
2022/01/04 05:58:13;;;;;;;29.92;11.77;;;8.10;99.90;;;;;;5025793;28;20040;-77
2022/01/04 06:00:39;;;;;;;42.95;10.90;;;8.10;99.90;;;;;;5022579;28;20045;-77
2022/01/04 06:03:05;;;;;;;31.67;12.48;;;8.10;99.90;;;;;;5023294;28;20045;-77
2022/01/04 06:05:31;;;;;;;30.13;11.25;;;8.10;99.90;;;;;;5019191;28;21066;-77
2022/01/04 06:07:57;;;;;;;32.88;11.73;;;8.10;99.90;;;;;;5026724;28;20363;-76
2022/01/04 06:10:23;;;;;;;26.70;11.68;;;8.60;99.90;;;;;;5023176;28;20599;-77
2022/01/04 06:15:15;;;;;;;32.88;13.32;;;8.10;99.90;;;;;;5025613;28;20072;-77
2022/01/04 06:17:43;;;;;;;27.05;10.95;;;8.10;99.90;;;;;;5028821;28;20047;-77
2022/01/04 06:20:10;;;;;;;27.88;12.07;;;8.20;99.90;;;;;;5029779;28;20045;-76
2022/01/04 06:22:39;;;;;;;34.97;11.82;;;8.10;99.90;;;;;;5027167;28;20049;-76
2022/01/04 06:25:08;;;;;;;32.50;12.27;;;8.10;99.90;;;;;;5021225;28;20057;-77
2022/01/04 06:27:34;;;;;;;31.67;12.48;;;8.10;99.90;;;;;;5025227;28;20046;-78
2022/01/04 06:30:00;;;;;;;29.70;11.98;;;8.10;99.90;;;;;;5020681;28;20493;-77
2022/01/04 06:32:26;;;;;;;34.45;12.18;;;8.10;99.90;;;;;;5025271;28;20519;-77
2022/01/04 06:34:52;;;;;;;35.20;12.18;;;8.10;99.90;;;;;;5026050;28;20045;-76
2022/01/04 06:37:18;;;;;;;32.78;12.02;;;8.10;99.90;;;;;;5029195;28;20037;-77
2022/01/04 06:39:44;;;;;;;35.63;13.15;;;8.10;99.90;;;;;;5026329;28;20065;-76
2022/01/04 06:42:11;;;;;;;37.70;11.60;;;8.10;99.90;;;;;;5016907;28;20060;-76
2022/01/04 06:44:38;;;;;;;34.63;11.52;;;8.10;99.90;;;;;;5020338;28;20464;-77
2022/01/04 06:47:03;;;;;;;36.38;12.27;;;8.10;99.90;;;;;;5026455;28;20088;-76
2022/01/04 06:49:29;;;;;;;33.75;12.93;;;8.10;99.90;;;;;;5026255;28;20513;-78
2022/01/04 06:51:54;;;;;;;40.10;12.43;;;8.10;99.90;;;;;;5024934;28;20069;-77
2022/01/04 06:54:21;;;;;;;33.08;12.75;;;8.10;99.90;;;;;;5024007;28;20457;-78
2022/01/04 06:56:48;;;;;;;35.60;13.23;;;8.10;99.90;;;;;;5026355;28;20428;-79
2022/01/04 06:59:14;;;;;;;27.38;12.45;;;8.10;99.90;;;;;;5025886;28;20053;-79
2022/01/04 07:01:40;;;;;;;37.65;13.07;;;8.10;99.90;;;;;;5026750;28;20060;-78
2022/01/04 07:04:05;;;;;;;32.97;12.93;;;8.10;99.90;;;;;;5023276;28;20053;-78
2022/01/04 07:06:32;;;;;;;28.15;10.98;;;8.10;99.90;;;;;;5026307;28;20045;-78
2022/01/04 07:08:58;;;;;;;29.77;11.63;;;8.10;99.90;;;;;;5026271;28;20124;-78
2022/01/04 07:11:24;;;;;;;26.17;10.43;;;8.10;99.90;;;;;;5021199;28;20464;-78
2022/01/04 07:13:49;;;;;;;24.17;9.95;;;8.10;99.90;;;;;;5027057;28;20524;-78
2022/01/04 07:16:15;;;;;;;28.23;10.38;;;8.10;99.90;;;;;;5025115;28;20436;-72
2022/01/04 07:18:46;;;;;;;28.20;10.18;;;8.10;99.90;;;;;;5026794;28;20575;-78
2022/01/04 07:21:12;;;;;;;29.42;9.95;;;8.10;99.90;;;;;;5025154;28;20132;-78
2022/01/04 07:23:38;;;;;;;26.58;9.70;;;8.10;99.90;;;;;;5022526;28;20049;-77
2022/01/04 07:26:03;;;;;;;26.52;10.60;;;8.00;99.90;;;;;;5023984;28;20099;-76
2022/01/04 07:28:29;;;;;;;28.23;9.40;;;8.00;99.90;;;;;;5023346;28;20136;-77
2022/01/04 07:30:54;;;;;;;19.42;9.00;;;8.00;99.90;;;;;;5026176;28;20712;-76
2022/01/04 07:33:20;;;;;;;21.20;8.82;;;8.00;99.90;;;;;;5025444;28;20037;-77
2022/01/04 07:35:45;;;;;;;28.45;10.15;;;8.00;99.90;;;;;;5026731;28;20057;-77
2022/01/04 07:38:12;;;;;;;20.92;9.45;;;7.50;99.90;;;;;;5024902;28;20041;-76
2022/01/04 07:40:38;;;;;;;25.20;9.55;;;8.00;99.90;;;;;;5024406;28;20045;-76
2022/01/04 07:43:03;;;;;;;19.92;8.80;;;8.00;99.90;;;;;;5025355;28;20064;-77
2022/01/04 07:45:31;;;;;;;24.35;9.52;;;8.00;99.90;;;;;;5024316;28;20136;-77
2022/01/04 07:47:58;;;;;;;26.42;10.25;;;7.90;99.90;;;;;;5024749;28;20052;-77
2022/01/04 07:50:24;;;;;;;22.85;10.52;;;8.00;99.90;;;;;;5021524;28;20045;-78
2022/01/04 07:52:49;;;;;;;24.10;9.60;;;7.90;99.90;;;;;;5020017;28;20049;-78
2022/01/04 07:55:15;;;;;;;28.17;10.95;;;8.00;99.90;;;;;;5026688;28;20087;-78
2022/01/04 07:57:42;;;;;;;20.17;9.25;;;7.90;99.90;;;;;;5018840;28;20033;-78
2022/01/04 08:00:09;;;;;;;25.75;12.05;;;7.90;99.90;;;;;;5028200;28;20474;-78
2022/01/04 08:02:34;;;;;;;23.10;11.13;;;7.90;99.90;;;;;;5014583;28;20053;-78
2022/01/04 08:05:00;;;;;;;28.73;11.00;;;7.90;99.90;;;;;;5015202;28;20046;-78
2022/01/04 08:07:26;;;;;;;25.90;12.18;;;8.00;99.90;;;;;;5015024;28;20045;-78
2022/01/04 08:09:52;;;;;;;25.88;12.63;;;8.00;99.90;;;;;;5021404;28;20488;-78
2022/01/04 08:12:19;;;;;;;29.08;12.80;;;8.00;99.90;;;;;;5020353;28;20103;-78
2022/01/04 08:14:45;;;;;;;28.00;13.57;;;8.00;99.90;;;;;;5020834;28;20099;-78
2022/01/04 08:17:11;;;;;;;34.00;13.30;;;8.00;99.90;;;;;;5018568;28;20408;-78
2022/01/04 08:19:37;;;;;;;24.25;9.93;;;8.00;99.90;;;;;;5013897;28;20057;-78
2022/01/04 08:22:03;;;;;;;17.65;8.25;;;8.00;99.90;;;;;;5016424;28;20049;-79
2022/01/04 08:24:28;;;;;;;12.40;5.72;;;7.90;99.90;;;;;;5022848;28;20046;-78
2022/01/04 08:26:54;;;;;;;14.20;4.72;;;7.90;99.90;;;;;;5026988;28;20053;-79
2022/01/04 08:29:20;;;;;;;10.85;2.88;;;7.80;99.90;;;;;;5027034;28;20042;-78
2022/01/04 08:31:45;;;;;;;10.43;3.78;;;7.80;99.90;;;;;;5031271;28;20045;-78
2022/01/04 08:34:11;;;;;;;10.63;2.33;;;7.70;99.90;;;;;;5013884;28;20100;-78
2022/01/04 08:36:38;;;;;;;8.88;3.25;;;7.70;99.90;;;;;;5027545;28;20041;-78
2022/01/04 08:39:04;;;;;;;6.75;1.70;;;7.70;99.90;;;;;;5024325;28;20128;-78
2022/01/04 08:41:30;;;;;;;11.25;2.33;;;7.60;99.90;;;;;;5030717;28;20076;-78
2022/01/04 08:43:55;;;;;;;11.45;4.25;;;7.60;99.90;;;;;;5021495;28;20149;-78
2022/01/04 08:46:22;;;;;;;26.85;11.38;;;7.60;99.90;;;;;;5015922;28;20052;-78
2022/01/04 08:48:48;;;;;;;11.60;4.00;;;7.50;99.90;;;;;;5018737;28;20053;-78
2022/01/04 08:51:14;;;;;;;13.18;5.70;;;7.50;99.90;;;;;;5019209;28;20065;-84
2022/01/04 08:53:39;;;;;;;8.38;3.47;;;7.50;99.90;;;;;;5030029;28;20136;-84
2022/01/04 08:56:05;;;;;;;8.68;2.67;;;7.50;99.90;;;;;;5023967;28;20481;-84
2022/01/04 08:58:31;;;;;;;8.25;3.45;;;7.50;99.90;;;;;;5016815;28;20046;-84
2022/01/04 09:00:57;;;;;;;11.27;3.03;;;7.50;99.90;;;;;;5017934;28;20049;-84
2022/01/04 09:03:24;;;;;;;12.15;3.25;;;7.50;99.90;;;;;;5017219;28;20046;-85
2022/01/04 09:05:49;;;;;;;7.32;2.83;;;7.50;99.90;;;;;;5015710;28;20054;-84
2022/01/04 09:08:15;;;;;;;10.70;2.95;;;7.50;99.90;;;;;;5026831;28;20041;-84
2022/01/04 09:10:41;;;;;;;7.32;2.60;;;7.50;99.90;;;;;;5029423;28;20463;-84
2022/01/04 09:13:12;;;;;;;12.80;2.92;;;7.40;99.90;;;;;;5021276;28;20045;-84
2022/01/04 09:20:51;;;;;;;10.13;2.88;;;7.40;99.90;;;;;;5011527;28;20054;-84
2022/01/04 09:23:20;;;;;;;11.73;2.08;;;7.40;99.90;;;;;;5028585;28;20046;-84
2022/01/04 09:25:51;;;;;;;10.68;2.85;;;7.40;99.90;;;;;;5025168;28;20045;-83
2022/01/04 09:28:19;;;;;;;10.00;3.00;;;7.40;99.90;;;;;;5027074;28;20057;-84
2022/01/04 09:30:48;;;;;;;8.98;3.08;;;7.50;99.90;;;;;;5016121;28;20037;-78
2022/01/04 09:33:14;;;;;;;6.95;2.05;;;7.50;99.90;;;;;;5012667;28;20048;-80
2022/01/04 09:35:41;;;;;;;8.25;2.08;;;7.50;99.90;;;;;;5028360;28;20478;-85
2022/01/04 09:38:07;;;;;;;5.90;1.70;;;7.50;99.90;;;;;;5019663;28;20063;-87
2022/01/04 09:40:35;;;;;;;9.10;1.55;;;7.50;99.90;;;;;;5017505;28;20145;-77
2022/01/04 09:43:03;;;;;;;6.90;1.35;;;7.50;99.90;;;;;;5025884;28;20396;-73
2022/01/04 09:45:29;;;;;;;6.20;1.35;;;7.50;99.90;;;;;;5011864;28;20085;-73
2022/01/04 09:47:54;;;;;;;6.13;1.42;;;7.50;99.90;;;;;;5027127;28;20795;-74
2022/01/04 09:50:20;;;;;;;7.75;2.33;;;7.50;99.90;;;;;;5023955;28;20041;-80
2022/01/04 09:52:47;;;;;;;4.78;1.20;;;7.50;99.90;;;;;;5021106;28;20049;-80
2022/01/04 09:55:15;;;;;;;8.13;1.40;;;7.50;99.90;;;;;;5014292;28;20067;-80
2022/01/04 09:57:46;;;;;;;6.43;1.17;;;7.50;99.90;;;;;;5023522;28;20053;-80
2022/01/04 10:00:17;;;;;;;5.63;1.42;;;7.50;99.90;;;;;;5021111;28;20049;-80
2022/01/04 10:02:49;;;;;;;8.68;1.80;;;7.50;99.90;;;;;;5026554;28;20049;-79
2022/01/04 10:05:25;;;;;;;4.15;1.20;;;7.50;99.90;;;;;;5028847;28;20037;-80
2022/01/04 10:08:03;;;;;;;6.00;1.20;;;7.40;99.90;;;;;;5027794;28;20432;-80
2022/01/04 10:10:28;;;;;;;9.50;1.10;;;7.40;99.90;;;;;;5027616;28;20077;-80
2022/01/04 10:13:00;;;;;;;2.83;0.85;;;7.40;99.90;;;;;;5023693;28;20088;-80
2022/01/04 10:15:48;;;;;;;6.13;1.17;;;7.40;99.90;;;;;;5017958;28;20050;-80
2022/01/04 10:18:13;;;;;;;6.47;1.83;;;7.30;99.90;;;;;;5024093;28;20057;-80
2022/01/04 10:20:40;;;;;;;5.95;1.05;;;7.30;99.90;;;;;;5025319;28;20125;-80
2022/01/04 10:23:21;;;;;;;7.65;1.60;;;7.30;99.90;;;;;;5030260;28;20124;-80
2022/01/04 10:25:49;;;;;;;7.25;1.20;;;7.30;99.90;;;;;;5041039;28;20124;-80
2022/01/04 10:28:32;;;;;;;4.93;0.80;;;7.30;99.90;;;;;;5028858;28;20045;-80
2022/01/04 10:31:09;;;;;;;3.63;0.90;;;7.30;99.90;;;;;;5015236;28;20057;-80
2022/01/04 10:33:36;;;;;;;5.38;1.20;;;7.30;99.90;;;;;;5021232;28;20053;-80
2022/01/04 10:36:11;;;;;;;3.88;0.90;;;7.30;99.90;;;;;;5024965;28;20099;-80
2022/01/04 10:38:41;;;;;;;5.57;1.00;;;7.30;99.90;;;;;;5029971;28;20049;-79
2022/01/04 10:41:07;;;;;;;5.75;1.10;;;7.30;99.90;;;;;;5011111;28;20038;-79
2022/01/04 10:43:38;;;;;;;2.85;0.80;;;7.20;99.90;;;;;;5022673;28;20099;-80
2022/01/04 10:46:04;;;;;;;5.72;0.88;;;7.20;99.90;;;;;;5021318;28;20049;-79
2022/01/04 10:48:39;;;;;;;4.70;1.02;;;7.20;99.90;;;;;;5026051;28;20078;-79
2022/01/04 10:51:14;;;;;;;6.10;0.90;;;7.20;99.90;;;;;;5018036;28;20064;-80
2022/01/04 10:53:49;;;;;;;3.17;0.73;;;7.10;99.90;;;;;;5028242;28;20065;-80
2022/01/04 10:56:22;;;;;;;3.15;0.90;;;7.00;99.90;;;;;;5022556;28;20049;-80
2022/01/04 10:58:49;;;;;;;3.70;0.70;;;7.00;99.90;;;;;;5022157;28;20508;-80
2022/01/04 11:01:17;;;;;;;3.38;0.70;;;7.00;99.90;;;;;;5022609;28;20042;-80
2022/01/04 11:03:46;;;;;;;3.58;0.73;;;6.90;99.90;;;;;;5022364;28;20049;-80
2022/01/04 11:06:20;;;;;;;3.28;0.85;;;6.90;99.90;;;;;;5019159;28;20061;-79
2022/01/04 11:08:46;;;;;;;1.88;0.70;;;6.90;99.90;;;;;;5025766;28;20050;-80
2022/01/04 11:11:12;;;;;;;6.05;0.80;;;6.90;99.90;;;;;;5010111;28;20046;-80
2022/01/04 11:13:38;;;;;;;3.10;0.75;;;6.80;99.90;;;;;;5016492;28;20056;-79
2022/01/04 11:16:04;;;;;;;5.57;0.65;;;6.80;99.90;;;;;;5023875;28;20034;-79
2022/01/04 11:18:31;;;;;;;6.13;0.80;;;6.80;99.90;;;;;;5023429;28;20112;-79
2022/01/04 11:20:57;;;;;;;3.45;0.80;;;6.90;99.90;;;;;;5021446;28;20102;-80
2022/01/04 11:23:29;;;;;;;4.38;0.95;;;6.90;99.90;;;;;;5025633;28;20037;-79
2022/01/04 11:25:56;;;;;;;4.85;1.77;;;6.90;99.90;;;;;;5020514;28;20072;-79
2022/01/04 11:28:22;;;;;;;4.03;1.10;;;6.90;99.90;;;;;;5021966;28;20050;-79
2022/01/04 11:31:02;;;;;;;4.10;0.95;;;6.90;99.90;;;;;;5026039;28;20763;-81
2022/01/04 11:33:32;;;;;;;3.55;0.60;;;6.90;99.90;;;;;;5027899;28;20057;-80
2022/01/04 11:35:59;;;;;;;2.85;0.80;;;7.00;99.90;;;;;;5023272;28;20042;-76
2022/01/04 11:38:37;;;;;;;4.18;1.17;;;6.90;99.90;;;;;;5021627;28;20034;-76
2022/01/04 11:41:04;;;;;;;5.45;0.80;;;6.90;99.90;;;;;;5019818;28;20042;-77
2022/01/04 11:43:40;;;;;;;2.78;0.43;;;6.90;99.90;;;;;;5020455;28;20601;-73
2022/01/04 11:46:06;;;;;;;1.92;0.60;;;6.90;99.90;;;;;;5024273;28;20475;-73
2022/01/04 11:48:36;;;;;;;2.67;0.70;;;6.80;99.90;;;;;;5011416;28;20046;-73
2022/01/04 11:51:04;;;;;;;1.95;0.50;;;6.80;99.90;;;;;;5015639;28;20050;-73
2022/01/04 11:53:31;;;;;;;6.05;0.68;;;6.80;99.90;;;;;;5016458;28;20080;-73
2022/01/04 11:56:02;;;;;;;2.20;0.50;;;6.70;99.90;;;;;;5017501;28;20128;-74
2022/01/04 11:58:43;;;;;;;1.60;0.38;;;6.70;99.90;;;;;;5028446;28;20041;-73
2022/01/04 12:01:11;;;;;;;4.25;1.00;;;6.60;99.90;;;;;;5027018;28;20503;-74
2022/01/04 12:03:37;;;;;;;3.53;0.70;;;6.60;99.90;;;;;;5019643;28;20132;-74
2022/01/04 12:06:05;;;;;;;6.05;0.85;;;6.60;99.90;;;;;;5021817;28;20121;-74
2022/01/04 12:08:36;;;;;;;6.25;0.50;;;6.60;99.90;;;;;;5019225;28;20052;-74
2022/01/04 12:11:02;;;;;;;3.13;0.68;;;6.60;99.90;;;;;;5013075;28;20048;-74
2022/01/04 12:13:52;;;;;;;4.20;0.50;;;6.60;99.90;;;;;;5015073;28;20046;-74
2022/01/04 12:16:31;;;;;;;6.07;0.75;;;6.60;99.90;;;;;;5041923;28;20041;-74
2022/01/04 12:18:57;;;;;;;3.17;0.40;;;6.60;99.90;;;;;;5022522;28;20045;-73
2022/01/04 12:21:26;;;;;;;7.32;1.40;;;6.60;99.90;;;;;;5026586;28;20045;-74
2022/01/04 12:23:52;;;;;;;8.05;0.60;;;6.70;99.90;;;;;;5030943;28;20048;-74
2022/01/04 12:26:18;;;;;;;2.50;0.40;;;6.70;99.90;;;;;;5015612;28;20120;-74
2022/01/04 12:28:46;;;;;;;5.28;0.70;;;6.70;99.90;;;;;;5017273;28;20111;-74
2022/01/04 12:31:20;;;;;;;3.25;0.45;;;6.80;99.90;;;;;;5028224;28;20041;-75
2022/01/04 12:33:45;;;;;;;;;;;6.80;99.90;;;;;;5030229;28;20038;-74
2022/01/04 12:36:24;;;;;;;5.47;0.57;;;6.80;99.90;;;;;;5032455;28;20031;-74
2022/01/04 12:38:51;;;;;;;6.57;0.70;;;6.80;99.90;;;;;;5017401;28;20067;-74
2022/01/04 12:41:17;;;;;;;3.50;0.63;;;6.90;99.90;;;;;;5015473;28;20041;-74
2022/01/04 12:43:47;;;;;;;5.68;0.70;;;6.80;99.90;;;;;;5019934;28;20481;-74
2022/01/04 12:46:14;;;;;;;4.00;0.95;;;6.80;99.90;;;;;;5025993;28;20508;-74
2022/01/04 12:48:48;;;;;;;6.38;0.60;;;6.80;99.90;;;;;;5031007;28;20168;-74
2022/01/04 12:51:38;;;;;;;4.30;0.73;;;6.80;99.90;;;;;;5015759;28;20124;-74
2022/01/04 12:54:07;;;;;;;5.65;0.70;;;6.80;99.90;;;;;;5014419;28;20041;-74
2022/01/04 12:56:38;;;;;;;3.40;0.60;;;6.80;99.90;;;;;;5028748;28;20147;-74
2022/01/04 12:59:04;;;;;;;3.50;0.70;;;6.80;99.90;;;;;;5030800;28;20473;-74
2022/01/04 13:01:31;;;;;;;7.70;0.70;;;6.80;99.90;;;;;;5027296;28;20052;-74